Ellington — 9V2908 — position and weather

sailwx.info

Track history (hours):
 
Tides and Currents Weather Stations Pressure Air Temp Water Temp Dewpoint Dewpoint Depression Visibility Wind Speed Wind Dir Waves Ship Positions

Ellington

Last reported at 2018-Feb-08 07:00 UTC. Time now 2018-Feb-25 00:06 UTC.
Position N 01°13' E 103°31'.
Warning: this ship's position is 16 days out of date.

Length 159 m; draft 7.2 m.

MMSI: 563000100.

Date/timePositionNaut miles runAvg speedWind from/ knotsBaromVisibWave heightAir tempDewpointWater temp
2018-Feb-08 07:00N 01°13' E 103°31'11 2.0
2018-Feb-08 01:19N 01°11' E 103°42'0 0.0
2018-Feb-08 00:55N 01°11' E 103°42'0 0.0
2018-Feb-08 00:28N 01°11' E 103°42'0 0.0
2018-Feb-07 23:58N 01°11' E 103°42'0 0.0
2018-Feb-07 23:28N 01°11' E 103°42'0 0.0
2018-Feb-07 22:46N 01°11' E 103°42'0 0.1
2018-Feb-07 22:19N 01°11' E 103°42'0 0.0
2018-Feb-07 21:55N 01°11' E 103°42'0 0.1
2018-Feb-07 21:28N 01°11' E 103°42'25 2.1
2018-Feb-07 09:28N 01°18' E 104°06'4 7.4
2018-Feb-07 08:59N 01°21' E 104°03'7 8.7
2018-Feb-07 08:08N 01°24' E 103°57'210.5
2018-Feb-07 07:56N 01°25' E 103°55'3 0.2
2018-Feb-06 11:57N 01°24' E 103°58'8 9.9
2018-Feb-06 11:09N 01°20' E 104°05'2 8.3
2018-Feb-06 10:58N 01°19' E 104°06'2 0.2
2018-Feb-06 02:36N 01°18' E 104°08'1 6.1
2018-Feb-06 02:28N 01°18' E 104°09'  
2018-Feb-02 01:45N 22°18' E 120°03'415.4
2018-Feb-02 01:30N 22°22' E 120°05'714.9
2018-Feb-02 01:01N 22°28' E 120°09'713.1
2018-Feb-02 00:30N 22°33' E 120°15'4 8.5
2018-Feb-02 00:00N 22°34' E 120°19'2 2.8
2018-Feb-01 23:23N 22°35' E 120°18'0 0.0
2018-Feb-01 22:59N 22°35' E 120°18'0 0.0
2018-Feb-01 21:59N 22°35' E 120°18'0 0.0
2018-Feb-01 21:29N 22°35' E 120°18'0 0.0
2018-Feb-01 19:29N 22°35' E 120°18'0 0.0
2018-Feb-01 18:56N 22°35' E 120°18'0 0.0
2018-Feb-01 18:23N 22°35' E 120°18'0 0.0
2018-Feb-01 17:53N 22°35' E 120°18'0 0.0
2018-Feb-01 17:30N 22°35' E 120°18'0 0.0
2018-Feb-01 17:00N 22°35' E 120°18'0 0.0
2018-Feb-01 16:30N 22°35' E 120°18'0 0.0
2018-Feb-01 16:00N 22°35' E 120°18'0 0.0
2018-Feb-01 15:30N 22°35' E 120°18'0 0.0
2018-Feb-01 14:57N 22°35' E 120°18'0 0.0
2018-Feb-01 13:30N 22°35' E 120°18'0 0.0
2018-Feb-01 13:00N 22°35' E 120°18'0 0.0
2018-Feb-01 12:30N 22°35' E 120°18'0 0.0
2018-Feb-01 11:57N 22°35' E 120°18'0 0.0
2018-Feb-01 11:00N 22°35' E 120°18'0 0.0
2018-Feb-01 10:30N 22°35' E 120°18'0 0.0
2018-Feb-01 09:57N 22°35' E 120°18'0 0.0
2018-Feb-01 09:30N 22°35' E 120°18'0 0.0
2018-Feb-01 09:00N 22°35' E 120°18'0 0.0
2018-Feb-01 08:30N 22°35' E 120°18'0 0.0
2018-Feb-01 07:24N 22°35' E 120°18'0 0.0
2018-Feb-01 06:51N 22°35' E 120°18'0 0.0
2018-Feb-01 06:30N 22°35' E 120°18'0 0.0
2018-Feb-01 05:54N 22°35' E 120°18'0 0.0
2018-Feb-01 05:30N 22°35' E 120°18'0 0.0
2018-Feb-01 05:00N 22°35' E 120°18'0 0.0
2018-Feb-01 04:30N 22°35' E 120°18'0 0.0
2018-Feb-01 04:00N 22°35' E 120°18'0 0.0
2018-Feb-01 03:00N 22°35' E 120°18'0 0.0
2018-Feb-01 02:30N 22°35' E 120°18'0 0.0
2018-Feb-01 01:57N 22°35' E 120°18'0 0.0
2018-Feb-01 01:24N 22°35' E 120°18'0 0.0
2018-Feb-01 01:00N 22°35' E 120°18'0 0.0
2018-Feb-01 00:30N 22°35' E 120°18'0 0.0
2018-Jan-31 23:57N 22°35' E 120°18'1 0.8
2018-Jan-31 22:59N 22°35' E 120°17'0 0.0
2018-Jan-31 22:26N 22°35' E 120°17'0 0.0
2018-Jan-31 20:59N 22°35' E 120°17'0 0.0
2018-Jan-31 20:29N 22°35' E 120°17'0 0.0
2018-Jan-31 19:59N 22°35' E 120°17'0 0.0
2018-Jan-31 19:29N 22°35' E 120°17'0 0.0
2018-Jan-31 18:59N 22°35' E 120°17'0 0.0
2018-Jan-31 18:29N 22°35' E 120°17'0 0.0
2018-Jan-31 17:59N 22°35' E 120°17'0 0.0
2018-Jan-31 17:29N 22°35' E 120°17'0 0.0
2018-Jan-31 16:59N 22°35' E 120°17'0 0.0
2018-Jan-31 16:29N 22°35' E 120°17'0 0.0
2018-Jan-31 15:59N 22°35' E 120°17'0 0.0
2018-Jan-31 15:29N 22°35' E 120°17'0 0.0
2018-Jan-31 14:59N 22°35' E 120°17'0 0.0
2018-Jan-31 14:29N 22°35' E 120°17'0 0.0
2018-Jan-31 12:59N 22°35' E 120°17'0 0.0
2018-Jan-31 12:29N 22°35' E 120°17'0 0.0
2018-Jan-31 11:59N 22°35' E 120°17'0 0.0
2018-Jan-31 11:29N 22°35' E 120°17'0 0.0
2018-Jan-31 10:59N 22°35' E 120°17'0 0.0
2018-Jan-31 10:29N 22°35' E 120°17'0 0.0
2018-Jan-31 09:59N 22°35' E 120°17'0 0.0
2018-Jan-31 09:29N 22°35' E 120°17'0 0.0
2018-Jan-31 08:59N 22°35' E 120°17'0 0.0
2018-Jan-31 08:29N 22°35' E 120°17'0 0.0
2018-Jan-31 07:59N 22°35' E 120°17'0 0.0
2018-Jan-31 07:29N 22°35' E 120°17'0 0.2
2018-Jan-31 07:00N 22°36' E 120°17'1 1.1
2018-Jan-31 06:30N 22°36' E 120°18'0 0.5
2018-Jan-31 05:59N 22°36' E 120°18'0 0.0
2018-Jan-31 05:26N 22°36' E 120°18'0 0.0
2018-Jan-31 04:59N 22°36' E 120°18'0 0.0
2018-Jan-31 04:26N 22°36' E 120°18'0 0.0
2018-Jan-31 03:56N 22°36' E 120°18'0 0.0
2018-Jan-31 03:23N 22°36' E 120°18'0 0.0
2018-Jan-31 02:56N 22°36' E 120°18'0 0.0
2018-Jan-31 02:20N 22°36' E 120°18'0 0.0
2018-Jan-31 01:56N 22°36' E 120°18'0 0.0
2018-Jan-31 01:26N 22°36' E 120°18'0 0.0
2018-Jan-31 00:59N 22°36' E 120°18'0 0.0
2018-Jan-30 23:59N 22°36' E 120°18'0 0.0
2018-Jan-30 23:29N 22°36' E 120°18'0 0.0
2018-Jan-30 22:56N 22°36' E 120°18'0 0.0
2018-Jan-30 22:29N 22°36' E 120°18'0 0.0
2018-Jan-30 21:29N 22°36' E 120°18'0 0.0
2018-Jan-30 20:53N 22°36' E 120°18'0 0.0
2018-Jan-30 20:29N 22°36' E 120°18'0 0.0
2018-Jan-30 19:59N 22°36' E 120°18'0 0.0
2018-Jan-30 19:29N 22°36' E 120°18'0 0.0
2018-Jan-30 18:56N 22°36' E 120°18'0 0.0
2018-Jan-30 18:29N 22°36' E 120°18'0 0.0
2018-Jan-30 17:59N 22°36' E 120°18'0 0.0
2018-Jan-30 17:29N 22°36' E 120°18'0 0.0
2018-Jan-30 16:59N 22°36' E 120°18'0 0.0
2018-Jan-30 16:29N 22°36' E 120°18'0 0.0
2018-Jan-30 15:59N 22°36' E 120°18'0 0.0
2018-Jan-30 15:29N 22°36' E 120°18'0 0.0
2018-Jan-30 14:56N 22°36' E 120°18'0 0.0
2018-Jan-30 14:26N 22°36' E 120°18'0 0.0
2018-Jan-30 13:29N 22°36' E 120°18'0 0.0
2018-Jan-30 12:56N 22°36' E 120°18'0 0.0
2018-Jan-30 12:29N 22°36' E 120°18'0 0.0
2018-Jan-30 11:47N 22°36' E 120°18'0 0.0
2018-Jan-30 11:29N 22°36' E 120°18'0 0.0
2018-Jan-30 10:29N 22°36' E 120°18'0 0.0
2018-Jan-30 09:20N 22°36' E 120°18'0 0.0
2018-Jan-30 08:53N 22°36' E 120°18'0 0.0
2018-Jan-30 08:29N 22°36' E 120°18'0 0.0
2018-Jan-30 07:56N 22°36' E 120°18'0 0.0
2018-Jan-30 07:29N 22°36' E 120°18'0 0.0
2018-Jan-30 06:59N 22°36' E 120°18'0 0.0
2018-Jan-30 06:29N 22°36' E 120°18'0 0.0
2018-Jan-30 05:56N 22°36' E 120°18'0 0.0
2018-Jan-30 05:26N 22°36' E 120°18'0 0.0
2018-Jan-30 04:56N 22°36' E 120°18'0 0.0
2018-Jan-30 04:29N 22°36' E 120°18'0 0.0
2018-Jan-30 03:53N 22°36' E 120°18'0 0.0
2018-Jan-30 03:29N 22°36' E 120°18'0 0.0
2018-Jan-30 02:59N 22°36' E 120°18'0 0.0
2018-Jan-30 02:23N 22°36' E 120°18'0 0.0
2018-Jan-30 01:59N 22°36' E 120°18'0 0.0
2018-Jan-30 01:29N 22°36' E 120°18'0 0.0
2018-Jan-30 01:00N 22°36' E 120°18'0 0.0
2018-Jan-30 00:30N 22°36' E 120°18'0 0.2
2018-Jan-30 00:00N 22°36' E 120°18'2 4.5
2018-Jan-29 23:30N 22°37' E 120°16'4 7.3
2018-Jan-29 23:00N 22°36' E 120°12'2 5.0
2018-Jan-29 22:30N 22°34' E 120°12'4 7.6
2018-Jan-29 22:00N 22°31' E 120°11'4 8.5
2018-Jan-29 21:30N 22°27' E 120°09'611.5
2018-Jan-29 21:00N 22°21' E 120°08'3 5.5
2018-Jan-29 20:28N 22°19' E 120°06'0 0.6
2018-Jan-29 20:00N 22°19' E 120°06'0 0.8
2018-Jan-29 19:30N 22°19' E 120°06'0 0.7
2018-Jan-29 19:00N 22°20' E 120°05'0 0.8
2018-Jan-29 18:30N 22°20' E 120°05'0 0.8
2018-Jan-29 18:00N 22°20' E 120°05'1 1.0
2018-Jan-29 17:29N 22°21' E 120°06'1 1.2
2018-Jan-29 17:00N 22°21' E 120°06'0 0.3
2018-Jan-29 16:30N 22°21' E 120°06'1 2.8
2018-Jan-29 16:00N 22°20' E 120°06'0 0.6
2018-Jan-29 15:29N 22°20' E 120°06'0 0.8
2018-Jan-29 15:00N 22°21' E 120°07'1 1.3
2018-Jan-29 14:30N 22°21' E 120°07'2 3.6
2018-Jan-29 13:59N 22°19' E 120°07'0 1.0
2018-Jan-29 13:30N 22°20' E 120°07'0 0.9
2018-Jan-29 13:00N 22°20' E 120°07'0 0.6
2018-Jan-29 12:30N 22°20' E 120°07'0 0.4
2018-Jan-29 12:00N 22°20' E 120°07'2 3.6
2018-Jan-29 11:30N 22°20' E 120°05'3 6.9
2018-Jan-29 11:00N 22°17' E 120°03'  
Track history (hours):
 
Tides and Currents Weather Stations Pressure Air Temp Water Temp Dewpoint Dewpoint Depression Visibility Wind Speed Wind Dir Waves Ship Positions

Ellington

Last reported at 2018-Feb-08 07:00 UTC. Time now 2018-Feb-25 00:06 UTC.
Position N 01°13' E 103°31'.
Warning: this ship's position is 16 days out of date.

Length 159 m; draft 7.2 m.

MMSI: 563000100.

Date/timePositionNaut miles runAvg speedWind from/ knotsBaromVisibWave heightAir tempDewpointWater temp
2018-Feb-08 07:00N 01°13' E 103°31'11 2.0
2018-Feb-08 01:19N 01°11' E 103°42'0 0.0
2018-Feb-08 00:55N 01°11' E 103°42'0 0.0
2018-Feb-08 00:28N 01°11' E 103°42'0 0.0
2018-Feb-07 23:58N 01°11' E 103°42'0 0.0
2018-Feb-07 23:28N 01°11' E 103°42'0 0.0
2018-Feb-07 22:46N 01°11' E 103°42'0 0.1
2018-Feb-07 22:19N 01°11' E 103°42'0 0.0
2018-Feb-07 21:55N 01°11' E 103°42'0 0.1
2018-Feb-07 21:28N 01°11' E 103°42'25 2.1
2018-Feb-07 09:28N 01°18' E 104°06'4 7.4
2018-Feb-07 08:59N 01°21' E 104°03'7 8.7
2018-Feb-07 08:08N 01°24' E 103°57'210.5
2018-Feb-07 07:56N 01°25' E 103°55'3 0.2
2018-Feb-06 11:57N 01°24' E 103°58'8 9.9
2018-Feb-06 11:09N 01°20' E 104°05'2 8.3
2018-Feb-06 10:58N 01°19' E 104°06'2 0.2
2018-Feb-06 02:36N 01°18' E 104°08'1 6.1
2018-Feb-06 02:28N 01°18' E 104°09'  
2018-Feb-02 01:45N 22°18' E 120°03'415.4
2018-Feb-02 01:30N 22°22' E 120°05'714.9
2018-Feb-02 01:01N 22°28' E 120°09'713.1
2018-Feb-02 00:30N 22°33' E 120°15'4 8.5
2018-Feb-02 00:00N 22°34' E 120°19'2 2.8
2018-Feb-01 23:23N 22°35' E 120°18'0 0.0
2018-Feb-01 22:59N 22°35' E 120°18'0 0.0
2018-Feb-01 21:59N 22°35' E 120°18'0 0.0
2018-Feb-01 21:29N 22°35' E 120°18'0 0.0
2018-Feb-01 19:29N 22°35' E 120°18'0 0.0
2018-Feb-01 18:56N 22°35' E 120°18'0 0.0
2018-Feb-01 18:23N 22°35' E 120°18'0 0.0
2018-Feb-01 17:53N 22°35' E 120°18'0 0.0
2018-Feb-01 17:30N 22°35' E 120°18'0 0.0
2018-Feb-01 17:00N 22°35' E 120°18'0 0.0
2018-Feb-01 16:30N 22°35' E 120°18'0 0.0
2018-Feb-01 16:00N 22°35' E 120°18'0 0.0
2018-Feb-01 15:30N 22°35' E 120°18'0 0.0
2018-Feb-01 14:57N 22°35' E 120°18'0 0.0
2018-Feb-01 13:30N 22°35' E 120°18'0 0.0
2018-Feb-01 13:00N 22°35' E 120°18'0 0.0
2018-Feb-01 12:30N 22°35' E 120°18'0 0.0
2018-Feb-01 11:57N 22°35' E 120°18'0 0.0
2018-Feb-01 11:00N 22°35' E 120°18'0 0.0
2018-Feb-01 10:30N 22°35' E 120°18'0 0.0
2018-Feb-01 09:57N 22°35' E 120°18'0 0.0
2018-Feb-01 09:30N 22°35' E 120°18'0 0.0
2018-Feb-01 09:00N 22°35' E 120°18'0 0.0
2018-Feb-01 08:30N 22°35' E 120°18'0 0.0
2018-Feb-01 07:24N 22°35' E 120°18'0 0.0
2018-Feb-01 06:51N 22°35' E 120°18'0 0.0
2018-Feb-01 06:30N 22°35' E 120°18'0 0.0
2018-Feb-01 05:54N 22°35' E 120°18'0 0.0
2018-Feb-01 05:30N 22°35' E 120°18'0 0.0
2018-Feb-01 05:00N 22°35' E 120°18'0 0.0
2018-Feb-01 04:30N 22°35' E 120°18'0 0.0
2018-Feb-01 04:00N 22°35' E 120°18'0 0.0
2018-Feb-01 03:00N 22°35' E 120°18'0 0.0
2018-Feb-01 02:30N 22°35' E 120°18'0 0.0
2018-Feb-01 01:57N 22°35' E 120°18'0 0.0
2018-Feb-01 01:24N 22°35' E 120°18'0 0.0
2018-Feb-01 01:00N 22°35' E 120°18'0 0.0
2018-Feb-01 00:30N 22°35' E 120°18'0 0.0
2018-Jan-31 23:57N 22°35' E 120°18'1 0.8
2018-Jan-31 22:59N 22°35' E 120°17'0 0.0
2018-Jan-31 22:26N 22°35' E 120°17'0 0.0
2018-Jan-31 20:59N 22°35' E 120°17'0 0.0
2018-Jan-31 20:29N 22°35' E 120°17'0 0.0
2018-Jan-31 19:59N 22°35' E 120°17'0 0.0
2018-Jan-31 19:29N 22°35' E 120°17'0 0.0
2018-Jan-31 18:59N 22°35' E 120°17'0 0.0
2018-Jan-31 18:29N 22°35' E 120°17'0 0.0
2018-Jan-31 17:59N 22°35' E 120°17'0 0.0
2018-Jan-31 17:29N 22°35' E 120°17'0 0.0
2018-Jan-31 16:59N 22°35' E 120°17'0 0.0
2018-Jan-31 16:29N 22°35' E 120°17'0 0.0
2018-Jan-31 15:59N 22°35' E 120°17'0 0.0
2018-Jan-31 15:29N 22°35' E 120°17'0 0.0
2018-Jan-31 14:59N 22°35' E 120°17'0 0.0
2018-Jan-31 14:29N 22°35' E 120°17'0 0.0
2018-Jan-31 12:59N 22°35' E 120°17'0 0.0
2018-Jan-31 12:29N 22°35' E 120°17'0 0.0
2018-Jan-31 11:59N 22°35' E 120°17'0 0.0
2018-Jan-31 11:29N 22°35' E 120°17'0 0.0
2018-Jan-31 10:59N 22°35' E 120°17'0 0.0
2018-Jan-31 10:29N 22°35' E 120°17'0 0.0
2018-Jan-31 09:59N 22°35' E 120°17'0 0.0
2018-Jan-31 09:29N 22°35' E 120°17'0 0.0
2018-Jan-31 08:59N 22°35' E 120°17'0 0.0
2018-Jan-31 08:29N 22°35' E 120°17'0 0.0
2018-Jan-31 07:59N 22°35' E 120°17'0 0.0
2018-Jan-31 07:29N 22°35' E 120°17'0 0.2
2018-Jan-31 07:00N 22°36' E 120°17'1 1.1
2018-Jan-31 06:30N 22°36' E 120°18'0 0.5
2018-Jan-31 05:59N 22°36' E 120°18'0 0.0
2018-Jan-31 05:26N 22°36' E 120°18'0 0.0
2018-Jan-31 04:59N 22°36' E 120°18'0 0.0
2018-Jan-31 04:26N 22°36' E 120°18'0 0.0
2018-Jan-31 03:56N 22°36' E 120°18'0 0.0
2018-Jan-31 03:23N 22°36' E 120°18'0 0.0
2018-Jan-31 02:56N 22°36' E 120°18'0 0.0
2018-Jan-31 02:20N 22°36' E 120°18'0 0.0
2018-Jan-31 01:56N 22°36' E 120°18'0 0.0
2018-Jan-31 01:26N 22°36' E 120°18'0 0.0
2018-Jan-31 00:59N 22°36' E 120°18'0 0.0
2018-Jan-30 23:59N 22°36' E 120°18'0 0.0
2018-Jan-30 23:29N 22°36' E 120°18'0 0.0
2018-Jan-30 22:56N 22°36' E 120°18'0 0.0
2018-Jan-30 22:29N 22°36' E 120°18'0 0.0
2018-Jan-30 21:29N 22°36' E 120°18'0 0.0
2018-Jan-30 20:53N 22°36' E 120°18'0 0.0
2018-Jan-30 20:29N 22°36' E 120°18'0 0.0
2018-Jan-30 19:59N 22°36' E 120°18'0 0.0
2018-Jan-30 19:29N 22°36' E 120°18'0 0.0
2018-Jan-30 18:56N 22°36' E 120°18'0 0.0
2018-Jan-30 18:29N 22°36' E 120°18'0 0.0
2018-Jan-30 17:59N 22°36' E 120°18'0 0.0
2018-Jan-30 17:29N 22°36' E 120°18'0 0.0
2018-Jan-30 16:59N 22°36' E 120°18'0 0.0
2018-Jan-30 16:29N 22°36' E 120°18'0 0.0
2018-Jan-30 15:59N 22°36' E 120°18'0 0.0
2018-Jan-30 15:29N 22°36' E 120°18'0 0.0
2018-Jan-30 14:56N 22°36' E 120°18'0 0.0
2018-Jan-30 14:26N 22°36' E 120°18'0 0.0
2018-Jan-30 13:29N 22°36' E 120°18'0 0.0
2018-Jan-30 12:56N 22°36' E 120°18'0 0.0
2018-Jan-30 12:29N 22°36' E 120°18'0 0.0
2018-Jan-30 11:47N 22°36' E 120°18'0 0.0
2018-Jan-30 11:29N 22°36' E 120°18'0 0.0
2018-Jan-30 10:29N 22°36' E 120°18'0 0.0
2018-Jan-30 09:20N 22°36' E 120°18'0 0.0
2018-Jan-30 08:53N 22°36' E 120°18'0 0.0
2018-Jan-30 08:29N 22°36' E 120°18'0 0.0
2018-Jan-30 07:56N 22°36' E 120°18'0 0.0
2018-Jan-30 07:29N 22°36' E 120°18'0 0.0
2018-Jan-30 06:59N 22°36' E 120°18'0 0.0
2018-Jan-30 06:29N 22°36' E 120°18'0 0.0
2018-Jan-30 05:56N 22°36' E 120°18'0 0.0
2018-Jan-30 05:26N 22°36' E 120°18'0 0.0
2018-Jan-30 04:56N 22°36' E 120°18'0 0.0
2018-Jan-30 04:29N 22°36' E 120°18'0 0.0
2018-Jan-30 03:53N 22°36' E 120°18'0 0.0
2018-Jan-30 03:29N 22°36' E 120°18'0 0.0
2018-Jan-30 02:59N 22°36' E 120°18'0 0.0
2018-Jan-30 02:23N 22°36' E 120°18'0 0.0
2018-Jan-30 01:59N 22°36' E 120°18'0 0.0
2018-Jan-30 01:29N 22°36' E 120°18'0 0.0
2018-Jan-30 01:00N 22°36' E 120°18'0 0.0
2018-Jan-30 00:30N 22°36' E 120°18'0 0.2
2018-Jan-30 00:00N 22°36' E 120°18'2 4.5
2018-Jan-29 23:30N 22°37' E 120°16'4 7.3
2018-Jan-29 23:00N 22°36' E 120°12'2 5.0
2018-Jan-29 22:30N 22°34' E 120°12'4 7.6
2018-Jan-29 22:00N 22°31' E 120°11'4 8.5
2018-Jan-29 21:30N 22°27' E 120°09'611.5
2018-Jan-29 21:00N 22°21' E 120°08'3 5.5
2018-Jan-29 20:28N 22°19' E 120°06'0 0.6
2018-Jan-29 20:00N 22°19' E 120°06'0 0.8
2018-Jan-29 19:30N 22°19' E 120°06'0 0.7
2018-Jan-29 19:00N 22°20' E 120°05'0 0.8
2018-Jan-29 18:30N 22°20' E 120°05'0 0.8
2018-Jan-29 18:00N 22°20' E 120°05'1 1.0
2018-Jan-29 17:29N 22°21' E 120°06'1 1.2
2018-Jan-29 17:00N 22°21' E 120°06'0 0.3
2018-Jan-29 16:30N 22°21' E 120°06'1 2.8
2018-Jan-29 16:00N 22°20' E 120°06'0 0.6
2018-Jan-29 15:29N 22°20' E 120°06'0 0.8
2018-Jan-29 15:00N 22°21' E 120°07'1 1.3
2018-Jan-29 14:30N 22°21' E 120°07'2 3.6
2018-Jan-29 13:59N 22°19' E 120°07'0 1.0
2018-Jan-29 13:30N 22°20' E 120°07'0 0.9
2018-Jan-29 13:00N 22°20' E 120°07'0 0.6
2018-Jan-29 12:30N 22°20' E 120°07'0 0.4
2018-Jan-29 12:00N 22°20' E 120°07'2 3.6
2018-Jan-29 11:30N 22°20' E 120°05'3 6.9
2018-Jan-29 11:00N 22°17' E 120°03'  

Dump ship's entire track history